createdAt,value
2023-04-18T00:01:15.959Z,1.40
2023-04-18T00:03:25.647Z,1.57
2023-04-18T00:05:34.674Z,1.77
2023-04-18T00:07:43.464Z,1.67
2023-04-18T00:09:53.941Z,1.93
2023-04-18T00:12:04.703Z,1.77
2023-04-18T00:14:13.678Z,1.40
2023-04-18T00:16:22.826Z,1.67
2023-04-18T00:18:31.802Z,1.70
2023-04-18T00:20:41.355Z,1.97
2023-04-18T00:22:50.010Z,1.93
2023-04-18T00:25:00.684Z,1.90
2023-04-18T00:27:09.628Z,1.70
2023-04-18T00:29:18.615Z,1.40
2023-04-18T00:31:27.530Z,1.70
2023-04-18T00:33:36.778Z,1.43
2023-04-18T00:35:45.785Z,1.70
2023-04-18T00:37:55.184Z,1.67
2023-04-18T00:40:06.622Z,1.63
2023-04-18T00:42:15.356Z,1.93
2023-04-18T00:44:24.031Z,1.70
2023-04-18T00:46:33.133Z,1.80
2023-04-18T00:48:41.993Z,1.90
2023-04-18T00:50:51.085Z,1.60
2023-04-18T00:53:00.777Z,1.60
2023-04-18T00:55:12.746Z,1.40
2023-04-18T00:57:22.313Z,1.70
2023-04-18T00:59:31.396Z,2.10
2023-04-18T01:01:41.949Z,2.07
2023-04-18T01:03:51.295Z,1.57
2023-04-18T01:06:01.191Z,1.80
2023-04-18T01:08:10.186Z,1.90
2023-04-18T01:10:20.887Z,1.77
2023-04-18T01:12:29.969Z,1.97
2023-04-18T01:14:38.819Z,1.87
2023-04-18T01:16:48.643Z,1.70
2023-04-18T01:18:57.851Z,1.97
2023-04-18T01:21:07.297Z,1.77
2023-04-18T01:23:16.503Z,1.70
2023-04-18T01:25:27.749Z,1.90
2023-04-18T01:27:36.383Z,1.90
2023-04-18T01:29:45.314Z,1.60
2023-04-18T01:31:54.271Z,1.53
2023-04-18T01:34:03.034Z,1.97
2023-04-18T01:36:12.075Z,1.60
2023-04-18T01:38:21.011Z,1.70
2023-04-18T01:40:31.961Z,1.73
2023-04-18T01:42:40.990Z,2.00
2023-04-18T01:44:49.986Z,2.00
2023-04-18T01:46:58.625Z,1.83
2023-04-18T01:49:07.727Z,1.60
2023-04-18T01:51:16.743Z,1.60
2023-04-18T01:53:26.011Z,1.90
2023-04-18T01:55:36.774Z,1.60
2023-04-18T01:57:45.680Z,1.67
2023-04-18T01:59:54.593Z,1.80
2023-04-18T02:02:03.380Z,1.83
2023-04-18T02:04:12.674Z,2.03
2023-04-18T02:06:22.069Z,1.70
2023-04-18T02:08:33.116Z,2.00
2023-04-18T02:10:44.177Z,1.60
2023-04-18T02:12:53.503Z,1.70
2023-04-18T02:15:02.129Z,1.80
2023-04-18T02:17:11.008Z,1.80
2023-04-18T02:19:19.744Z,1.50
2023-04-18T02:21:31.446Z,1.77
2023-04-18T02:23:40.310Z,1.43
2023-04-18T02:25:50.902Z,1.60
2023-04-18T02:27:59.907Z,1.90
2023-04-18T02:30:09.751Z,1.60
2023-04-18T02:32:18.718Z,1.97
2023-04-18T02:34:27.898Z,1.77
2023-04-18T02:36:36.979Z,1.90
2023-04-18T02:38:46.375Z,1.70
2023-04-18T02:40:56.589Z,1.67
2023-04-18T02:43:05.618Z,1.67
2023-04-18T02:45:14.687Z,1.73
2023-04-18T02:47:23.402Z,1.77
2023-04-18T02:49:32.429Z,1.50
2023-04-18T02:51:41.336Z,1.50
2023-04-18T02:53:55.142Z,1.73
2023-04-18T02:56:05.684Z,2.00
2023-04-18T02:58:14.483Z,1.60
2023-04-18T03:00:23.834Z,1.50
2023-04-18T03:02:32.668Z,1.60
2023-04-18T03:04:41.639Z,1.53
2023-04-18T03:06:50.481Z,1.60
2023-04-18T03:08:59.947Z,1.73
2023-04-18T03:11:10.536Z,1.53
2023-04-18T03:13:19.587Z,1.50
2023-04-18T03:15:28.562Z,1.73
2023-04-18T03:17:37.918Z,1.90
2023-04-18T03:19:47.186Z,1.80
2023-04-18T03:21:55.782Z,1.60
2023-04-18T03:24:05.351Z,1.80
2023-04-18T03:26:15.846Z,1.60
2023-04-18T03:28:24.493Z,1.70
2023-04-18T03:30:33.757Z,1.90
2023-04-18T03:32:43.269Z,1.53
2023-04-18T03:34:52.974Z,1.87
2023-04-18T03:37:02.269Z,1.70
2023-04-18T03:39:11.394Z,1.77
2023-04-18T03:41:21.886Z,1.97
2023-04-18T03:43:31.313Z,1.40
2023-04-18T03:45:40.429Z,1.70
2023-04-18T03:47:49.288Z,1.70
2023-04-18T03:49:58.149Z,1.53
2023-04-18T03:52:07.297Z,1.50
2023-04-18T03:54:16.699Z,1.60
2023-04-18T03:56:27.115Z,1.83
2023-04-18T03:58:36.972Z,1.77
2023-04-18T04:00:45.883Z,1.83
2023-04-18T04:02:55.520Z,1.90
2023-04-18T04:05:05.027Z,1.90
2023-04-18T04:07:13.959Z,1.80
2023-04-18T04:09:22.921Z,1.90
2023-04-18T04:11:33.415Z,1.70
2023-04-18T04:13:42.303Z,1.57
2023-04-18T04:15:51.132Z,1.80
2023-04-18T04:17:59.954Z,1.63
2023-04-18T04:20:09.471Z,1.80
2023-04-18T04:22:18.181Z,1.77
2023-04-18T04:24:26.903Z,1.50
2023-04-18T04:26:38.141Z,1.50
2023-04-18T04:28:49.090Z,1.60
2023-04-18T04:30:57.857Z,1.60
2023-04-18T04:33:06.899Z,1.57
2023-04-18T04:35:15.749Z,1.70
2023-04-18T04:37:24.737Z,1.70
2023-04-18T04:39:33.846Z,1.60
2023-04-18T04:41:44.549Z,1.63
2023-04-18T04:43:54.072Z,1.77
2023-04-18T04:46:05.880Z,1.70
2023-04-18T04:48:14.896Z,1.90
2023-04-18T04:50:24.268Z,1.60
2023-04-18T04:52:33.896Z,1.87
2023-04-18T04:54:45.375Z,1.70
2023-04-18T04:56:55.422Z,1.50
2023-04-18T04:59:04.012Z,1.77
2023-04-18T05:01:13.496Z,1.60
2023-04-18T05:03:22.230Z,1.80
2023-04-18T05:05:31.151Z,1.40
2023-04-18T05:07:39.836Z,1.60
2023-04-18T05:09:50.247Z,1.73
2023-04-18T05:12:02.068Z,1.57
2023-04-18T05:14:12.457Z,1.87
2023-04-18T05:16:21.618Z,1.43
2023-04-18T05:18:32.108Z,1.67
2023-04-18T05:20:42.422Z,1.60
2023-04-18T05:22:51.731Z,1.47
2023-04-18T05:25:00.453Z,1.57
2023-04-18T05:27:11.108Z,1.47
2023-04-18T05:29:20.148Z,1.50
2023-04-18T05:31:28.879Z,1.50
2023-04-18T05:33:38.190Z,1.50
2023-04-18T05:35:47.217Z,1.20
2023-04-18T05:37:56.214Z,1.37
2023-04-18T05:40:05.578Z,1.70
2023-04-18T05:42:16.042Z,1.60
2023-04-18T05:44:26.119Z,1.40
2023-04-18T05:46:35.330Z,1.40
2023-04-18T05:48:44.095Z,1.40
2023-04-18T05:50:53.546Z,1.63
2023-04-18T05:53:02.452Z,1.37
2023-04-18T05:55:11.903Z,1.63
2023-04-18T05:57:22.156Z,1.53
2023-04-18T05:59:30.934Z,1.40
2023-04-18T06:01:40.159Z,1.57
2023-04-18T06:03:49.717Z,1.63
2023-04-18T06:05:59.116Z,1.60
2023-04-18T06:08:07.796Z,1.53
2023-04-18T06:10:17.517Z,1.50
2023-04-18T06:12:28.100Z,1.43
2023-04-18T06:14:37.454Z,1.60
2023-04-18T06:16:46.342Z,1.43
2023-04-18T06:18:55.169Z,1.70
2023-04-18T06:21:04.200Z,1.40
2023-04-18T06:23:13.396Z,1.40
2023-04-18T06:25:22.581Z,1.40
2023-04-18T06:27:32.979Z,1.10
2023-04-18T06:29:41.704Z,1.53
2023-04-18T06:31:50.989Z,1.60
2023-04-18T06:33:59.950Z,1.30
2023-04-18T06:36:09.087Z,1.60
2023-04-18T06:38:18.313Z,1.60
2023-04-18T06:40:27.414Z,1.40
2023-04-18T06:42:37.452Z,1.30
2023-04-18T06:44:46.177Z,1.20
2023-04-18T06:46:54.833Z,1.40
2023-04-18T06:49:04.045Z,1.23
2023-04-18T06:51:13.239Z,1.50
2023-04-18T06:53:22.612Z,1.30
2023-04-18T06:55:31.529Z,1.20
2023-04-18T06:57:42.834Z,1.30
2023-04-18T06:59:51.819Z,1.30
2023-04-18T07:02:01.127Z,1.33
2023-04-18T07:04:10.069Z,1.20
2023-04-18T07:06:19.556Z,1.57
2023-04-18T07:08:29.191Z,1.50
2023-04-18T07:10:38.040Z,1.30
2023-04-18T07:12:49.049Z,1.40
2023-04-18T07:14:57.955Z,1.30
2023-04-18T07:17:06.683Z,1.50
2023-04-18T07:19:15.516Z,1.30
2023-04-18T07:21:24.407Z,1.50
2023-04-18T07:23:33.343Z,1.40
2023-04-18T07:25:42.595Z,1.40
2023-04-18T07:27:53.603Z,1.47
2023-04-18T07:30:02.912Z,1.50
2023-04-18T07:32:11.817Z,1.63
2023-04-18T07:34:22.154Z,1.20
2023-04-18T07:36:31.435Z,1.60
2023-04-18T07:38:40.362Z,1.40
2023-04-18T07:40:49.603Z,1.50
2023-04-18T07:43:00.120Z,1.60
2023-04-18T07:45:09.697Z,1.53
2023-04-18T07:47:22.324Z,1.67
2023-04-18T07:49:31.304Z,1.50
2023-04-18T07:51:40.266Z,1.50
2023-04-18T07:53:49.264Z,1.63
2023-04-18T07:55:58.132Z,1.50
2023-04-18T07:58:08.158Z,1.67
2023-04-18T08:00:17.344Z,1.60
2023-04-18T08:02:26.334Z,1.57
2023-04-18T08:04:35.344Z,1.43
2023-04-18T08:06:44.461Z,1.20
2023-04-18T08:08:53.458Z,1.30
2023-04-18T08:11:02.550Z,1.50
2023-04-18T08:13:13.922Z,1.60
2023-04-18T08:15:22.920Z,1.80
2023-04-18T08:17:31.650Z,1.40
2023-04-18T08:19:40.687Z,1.50
2023-04-18T08:21:53.129Z,1.40
2023-04-18T08:24:02.047Z,1.43
2023-04-18T08:26:10.928Z,1.30
2023-04-18T08:28:21.503Z,1.67
2023-04-18T08:30:30.948Z,1.50
2023-04-18T08:32:39.916Z,1.20
2023-04-18T08:34:48.746Z,1.23
2023-04-18T08:36:57.657Z,1.70
2023-04-18T08:39:08.150Z,1.27
2023-04-18T08:41:18.509Z,1.30
2023-04-18T08:43:31.249Z,1.40
2023-04-18T08:45:40.787Z,1.50
2023-04-18T08:47:49.865Z,1.20
2023-04-18T08:49:59.292Z,1.10
2023-04-18T08:52:12.422Z,1.37
2023-04-18T08:54:22.677Z,1.13
2023-04-18T08:56:32.193Z,1.10
2023-04-18T08:58:45.293Z,1.17
2023-04-18T09:00:54.858Z,1.10
2023-04-18T09:03:04.162Z,1.10
2023-04-18T09:05:14.840Z,1.37
2023-04-18T09:07:30.048Z,1.07
2023-04-18T09:09:42.547Z,1.20
2023-04-18T09:11:53.126Z,1.40
2023-04-18T09:14:03.665Z,1.03
2023-04-18T09:16:13.819Z,1.40
2023-04-18T09:18:24.394Z,0.90
2023-04-18T09:20:38.529Z,1.10
2023-04-18T09:22:48.734Z,1.20
2023-04-18T09:24:58.356Z,1.00
2023-04-18T09:27:14.731Z,0.90
2023-04-18T09:29:25.473Z,0.90
2023-04-18T09:31:35.929Z,1.00
2023-04-18T09:33:47.027Z,1.00
2023-04-18T09:35:56.066Z,1.20
2023-04-18T09:38:05.430Z,1.30
2023-04-18T09:40:19.226Z,1.10
2023-04-18T09:42:28.931Z,1.10
2023-04-18T09:44:39.770Z,0.87
2023-04-18T09:46:49.619Z,1.13
2023-04-18T09:48:58.658Z,0.90
2023-04-18T09:51:08.751Z,0.70
2023-04-18T09:53:20.943Z,0.90
2023-04-18T09:55:30.607Z,0.90
2023-04-18T09:57:41.118Z,0.93
2023-04-18T09:59:53.812Z,1.00
2023-04-18T10:02:04.705Z,0.97
2023-04-18T10:04:14.929Z,0.90
2023-04-18T10:06:24.242Z,0.93
2023-04-18T10:08:34.608Z,1.10
2023-04-18T10:10:44.050Z,0.93
2023-04-18T10:12:55.416Z,0.90
2023-04-18T10:15:07.562Z,0.77
2023-04-18T10:17:17.222Z,0.73
2023-04-18T10:19:27.157Z,0.80
2023-04-18T10:21:36.693Z,0.83
2023-04-18T10:23:49.005Z,1.00
2023-04-18T10:25:58.211Z,0.80
2023-04-18T10:28:07.499Z,0.80
2023-04-18T10:30:18.973Z,0.90
2023-04-18T10:32:28.082Z,0.90
2023-04-18T10:34:39.264Z,0.83
2023-04-18T10:37:03.251Z,0.77
2023-04-18T10:39:22.892Z,0.87
2023-04-18T10:41:32.128Z,0.97
2023-04-18T10:43:56.140Z,1.00
2023-04-18T10:46:30.305Z,0.80
2023-04-18T10:48:40.362Z,0.80
2023-04-18T10:51:01.439Z,0.80
2023-04-18T10:53:10.262Z,0.80
2023-04-18T10:55:20.803Z,0.80
2023-04-18T10:57:40.236Z,0.80
2023-04-18T10:59:51.494Z,0.80
2023-04-18T11:02:05.031Z,0.70
2023-04-18T11:04:14.697Z,0.90
2023-04-18T11:06:23.919Z,1.00
2023-04-18T11:08:33.225Z,0.87
2023-04-18T11:10:42.218Z,0.87
2023-04-18T11:12:51.354Z,0.67
2023-04-18T11:15:01.616Z,0.70
2023-04-18T11:17:23.870Z,0.70
2023-04-18T11:19:32.463Z,0.67
2023-04-18T11:21:41.161Z,0.80
2023-04-18T11:23:50.309Z,0.80
2023-04-18T11:26:00.034Z,0.80
2023-04-18T11:28:10.037Z,0.80
2023-04-18T11:30:18.846Z,0.90
2023-04-18T11:32:30.270Z,0.80
2023-04-18T11:34:39.029Z,0.70
2023-04-18T11:36:51.454Z,1.00
2023-04-18T11:39:00.378Z,0.93
2023-04-18T11:41:15.049Z,0.60
2023-04-18T11:43:24.583Z,0.80
2023-04-18T11:45:34.081Z,0.80
2023-04-18T11:47:44.944Z,0.70
2023-04-18T11:50:00.539Z,0.80
2023-04-18T11:52:13.997Z,0.80
2023-04-18T11:54:39.337Z,0.83
2023-04-18T11:56:49.539Z,0.70
2023-04-18T11:58:58.624Z,0.73
2023-04-18T12:01:20.346Z,0.90
2023-04-18T12:03:30.697Z,0.70
2023-04-18T12:05:40.101Z,0.90
2023-04-18T12:07:49.184Z,0.70
2023-04-18T12:09:58.036Z,0.77
2023-04-18T12:12:06.667Z,0.80
2023-04-18T12:14:22.723Z,0.80
2023-04-18T12:16:33.588Z,0.87
2023-04-18T12:18:47.359Z,0.90
2023-04-18T12:20:56.450Z,1.23
2023-04-18T12:23:05.330Z,0.90
2023-04-18T12:25:24.381Z,0.80
2023-04-18T12:27:49.007Z,0.80
2023-04-18T12:29:58.138Z,0.80
2023-04-18T12:32:07.291Z,0.70
2023-04-18T12:34:17.769Z,0.80
2023-04-18T12:36:28.595Z,0.60
2023-04-18T12:38:38.170Z,0.90
2023-04-18T12:40:47.275Z,0.80
2023-04-18T12:42:56.888Z,0.80
2023-04-18T12:45:08.139Z,0.70
2023-04-18T12:47:16.985Z,0.70
2023-04-18T12:49:27.697Z,0.70
2023-04-18T12:51:36.683Z,0.80
2023-04-18T12:53:45.200Z,0.80
2023-04-18T12:55:54.059Z,1.10
2023-04-18T12:58:03.007Z,0.50
2023-04-18T13:00:13.244Z,0.40
2023-04-18T13:02:22.592Z,0.60
2023-04-18T13:04:33.776Z,0.50
2023-04-18T13:06:42.800Z,0.53
2023-04-18T13:08:51.780Z,0.50
2023-04-18T13:11:00.716Z,0.70
2023-04-18T13:13:09.636Z,0.70
2023-04-18T13:15:19.196Z,0.70
2023-04-18T13:17:28.546Z,0.60
2023-04-18T13:19:39.027Z,0.80
2023-04-18T13:21:49.650Z,0.70
2023-04-18T13:23:59.152Z,0.70
2023-04-18T13:26:09.157Z,0.67
2023-04-18T13:28:18.084Z,0.77
2023-04-18T13:30:26.913Z,0.67
2023-04-18T13:32:36.324Z,0.70
2023-04-18T13:34:47.920Z,0.80
2023-04-18T13:36:58.875Z,0.77
2023-04-18T13:39:08.005Z,1.03
2023-04-18T13:41:17.397Z,0.80
2023-04-18T13:43:26.283Z,0.70
2023-04-18T13:45:35.042Z,0.60
2023-04-18T13:47:44.099Z,0.53
2023-04-18T13:49:54.750Z,0.70
2023-04-18T13:52:03.438Z,0.80
2023-04-18T13:54:15.017Z,0.80
2023-04-18T13:56:23.803Z,0.73
2023-04-18T13:58:32.843Z,0.97
2023-04-18T14:00:41.806Z,0.60
2023-04-18T14:02:51.858Z,0.70
2023-04-18T14:05:03.025Z,0.63
2023-04-18T14:07:12.332Z,0.60
2023-04-18T14:09:20.950Z,0.77
2023-04-18T14:11:29.912Z,0.70
2023-04-18T14:13:39.050Z,0.50
2023-04-18T14:15:48.070Z,0.60
2023-04-18T14:17:57.232Z,0.70
2023-04-18T14:20:09.259Z,0.80
2023-04-18T14:22:18.325Z,0.70
2023-04-18T14:24:26.972Z,0.70
2023-04-18T14:26:35.833Z,0.57
2023-04-18T14:28:44.464Z,0.70
2023-04-18T14:30:55.704Z,0.70
2023-04-18T14:33:05.352Z,0.63
2023-04-18T14:35:16.406Z,0.70
2023-04-18T14:37:25.778Z,0.60
2023-04-18T14:39:35.141Z,0.50
2023-04-18T14:41:44.177Z,0.70
2023-04-18T14:43:53.256Z,0.60
2023-04-18T14:46:02.088Z,0.63
2023-04-18T14:48:11.472Z,0.60
2023-04-18T14:50:22.127Z,0.60
2023-04-18T14:52:31.280Z,0.73
2023-04-18T14:54:40.493Z,0.67
2023-04-18T14:56:49.374Z,0.63
2023-04-18T14:58:58.739Z,0.57
2023-04-18T15:01:08.334Z,0.70
2023-04-18T15:03:17.442Z,0.80
2023-04-18T15:05:27.939Z,0.60
2023-04-18T15:07:38.028Z,0.70
2023-04-18T15:09:46.879Z,0.67
2023-04-18T15:11:55.833Z,0.63
2023-04-18T15:14:04.880Z,0.50
2023-04-18T15:16:14.182Z,0.70
2023-04-18T15:18:22.983Z,0.60
2023-04-18T15:20:34.472Z,0.80
2023-04-18T15:22:43.694Z,0.50
2023-04-18T15:24:52.523Z,0.67
2023-04-18T15:27:02.050Z,0.70
2023-04-18T15:29:11.410Z,0.70
2023-04-18T15:31:20.148Z,0.70
2023-04-18T15:33:29.694Z,0.50
2023-04-18T15:35:40.488Z,0.60
2023-04-18T15:37:49.176Z,0.50
2023-04-18T15:39:58.772Z,0.73
2023-04-18T15:42:08.076Z,0.70
2023-04-18T15:44:16.809Z,0.50
2023-04-18T15:46:25.838Z,0.70
2023-04-18T15:48:36.638Z,0.63
2023-04-18T15:50:51.773Z,0.60
2023-04-18T15:53:00.795Z,0.60
2023-04-18T15:55:10.370Z,0.80
2023-04-18T15:57:19.295Z,0.80
2023-04-18T15:59:28.328Z,0.80
2023-04-18T16:01:37.476Z,0.80
2023-04-18T16:03:46.805Z,0.70
2023-04-18T16:05:57.206Z,1.00
2023-04-18T16:08:06.407Z,0.70
2023-04-18T16:10:15.628Z,0.60
2023-04-18T16:12:24.725Z,0.60
2023-04-18T16:14:33.982Z,0.60
2023-04-18T16:16:42.479Z,0.60
2023-04-18T16:18:51.346Z,0.70
2023-04-18T16:21:01.825Z,0.80
2023-04-18T16:23:10.880Z,0.90
2023-04-18T16:25:19.844Z,0.63
2023-04-18T16:27:28.925Z,0.70
2023-04-18T16:29:38.031Z,0.83
2023-04-18T16:31:47.068Z,0.67
2023-04-18T16:33:56.258Z,0.57
2023-04-18T16:36:07.475Z,1.20
2023-04-18T16:38:16.674Z,1.40
2023-04-18T16:40:30.862Z,0.70
2023-04-18T16:42:40.018Z,0.80
2023-04-18T16:44:49.046Z,1.00
2023-04-18T16:46:57.674Z,0.60
2023-04-18T16:49:06.524Z,0.80
2023-04-18T16:51:16.588Z,0.60
2023-04-18T16:53:25.713Z,0.60
2023-04-18T16:55:34.358Z,0.77
2023-04-18T16:57:43.257Z,0.60
2023-04-18T16:59:52.284Z,0.70
2023-04-18T17:02:01.709Z,0.60
2023-04-18T17:04:10.473Z,0.80
2023-04-18T17:06:23.261Z,0.70
2023-04-18T17:08:34.100Z,0.60
2023-04-18T17:10:43.131Z,0.63
2023-04-18T17:12:52.085Z,0.70
2023-04-18T17:15:01.170Z,0.60
2023-04-18T17:17:10.268Z,0.60
2023-04-18T17:19:19.495Z,0.70
2023-04-18T17:21:30.337Z,0.60
2023-04-18T17:23:39.541Z,0.60
2023-04-18T17:25:48.418Z,0.70
2023-04-18T17:27:57.543Z,0.80
2023-04-18T17:30:07.226Z,0.70
2023-04-18T17:32:16.162Z,0.80
2023-04-18T17:34:25.222Z,0.60
2023-04-18T17:36:35.428Z,0.70
2023-04-18T17:38:49.286Z,0.70
2023-04-18T17:41:02.253Z,0.60
2023-04-18T17:43:10.924Z,0.70
2023-04-18T17:45:20.536Z,0.50
2023-04-18T17:47:29.585Z,0.57
2023-04-18T17:49:38.182Z,0.70
2023-04-18T17:51:49.108Z,0.50
2023-04-18T17:53:58.238Z,0.93
2023-04-18T17:56:07.782Z,0.60
2023-04-18T17:58:17.192Z,0.60
2023-04-18T18:00:26.548Z,0.50
2023-04-18T18:02:35.213Z,0.50
2023-04-18T18:04:44.293Z,0.70
2023-04-18T18:06:58.823Z,0.60
2023-04-18T18:09:07.698Z,0.60
2023-04-18T18:11:16.962Z,0.70
2023-04-18T18:13:25.778Z,0.87
2023-04-18T18:15:35.185Z,0.70
2023-04-18T18:17:44.585Z,0.50
2023-04-18T18:19:53.237Z,0.40
2023-04-18T18:22:03.807Z,0.60
2023-04-18T18:24:12.677Z,0.40
2023-04-18T18:26:21.760Z,0.43
2023-04-18T18:28:30.572Z,0.70
2023-04-18T18:30:39.297Z,0.50
2023-04-18T18:32:48.430Z,0.60
2023-04-18T18:34:57.563Z,0.50
2023-04-18T18:37:07.981Z,0.50
2023-04-18T18:39:16.761Z,0.60
2023-04-18T18:41:25.733Z,0.47
2023-04-18T18:43:34.717Z,0.60
2023-04-18T18:45:43.531Z,0.60
2023-04-18T18:47:52.514Z,0.50
2023-04-18T18:50:01.537Z,0.50
2023-04-18T18:52:11.906Z,0.70
2023-04-18T18:54:20.794Z,0.53
2023-04-18T18:56:29.428Z,0.50
2023-04-18T18:58:39.232Z,0.50
2023-04-18T19:00:49.027Z,0.37
2023-04-18T19:02:58.156Z,0.60
2023-04-18T19:05:07.857Z,0.60
2023-04-18T19:07:19.040Z,0.60
2023-04-18T19:09:27.942Z,0.53
2023-04-18T19:11:36.818Z,0.50
2023-04-18T19:13:45.398Z,0.40
2023-04-18T19:15:54.461Z,0.50
2023-04-18T19:18:03.279Z,0.50
2023-04-18T19:20:12.605Z,0.40
2023-04-18T19:22:22.740Z,0.47
2023-04-18T19:24:32.249Z,0.40
2023-04-18T19:26:40.836Z,0.50
2023-04-18T19:28:49.440Z,0.43
2023-04-18T19:30:58.145Z,0.57
2023-04-18T19:33:07.727Z,0.60
2023-04-18T19:35:16.358Z,0.60
2023-04-18T19:37:27.567Z,0.50
2023-04-18T19:39:36.312Z,0.60
2023-04-18T19:41:46.640Z,0.60
2023-04-18T19:43:55.661Z,0.50
2023-04-18T19:46:04.782Z,0.50
2023-04-18T19:48:14.021Z,0.60
2023-04-18T19:50:22.883Z,0.60
2023-04-18T19:52:34.175Z,0.60
2023-04-18T19:54:43.169Z,0.50
2023-04-18T19:56:52.190Z,0.57
2023-04-18T19:59:02.259Z,0.57
2023-04-18T20:01:12.451Z,0.50
2023-04-18T20:03:21.340Z,0.50
2023-04-18T20:05:30.563Z,0.73
2023-04-18T20:07:41.781Z,0.57
2023-04-18T20:09:50.796Z,0.57
2023-04-18T20:12:01.714Z,0.63
2023-04-18T20:14:10.453Z,0.60
2023-04-18T20:16:19.851Z,0.67
2023-04-18T20:18:28.611Z,0.60
2023-04-18T20:20:37.736Z,0.50
2023-04-18T20:22:48.354Z,0.57
2023-04-18T20:24:59.093Z,0.60
2023-04-18T20:27:07.695Z,0.60
2023-04-18T20:29:16.754Z,0.60
2023-04-18T20:31:25.959Z,0.50
2023-04-18T20:33:36.364Z,0.70
2023-04-18T20:35:47.058Z,0.97
2023-04-18T20:37:58.127Z,0.50
2023-04-18T20:40:11.479Z,0.80
2023-04-18T20:42:21.621Z,0.60
2023-04-18T20:44:31.328Z,0.70
2023-04-18T20:46:40.840Z,0.60
2023-04-18T20:48:49.701Z,0.60
2023-04-18T20:50:58.927Z,0.60
2023-04-18T20:53:09.498Z,0.70
2023-04-18T20:55:18.387Z,0.40
2023-04-18T20:57:27.476Z,0.60
2023-04-18T20:59:36.484Z,0.43
2023-04-18T21:01:47.389Z,0.60
2023-04-18T21:03:56.784Z,0.70
2023-04-18T21:06:06.087Z,0.70
2023-04-18T21:08:17.185Z,0.70
2023-04-18T21:10:26.033Z,0.60
2023-04-18T21:12:35.103Z,0.47
2023-04-18T21:14:44.587Z,0.50
2023-04-18T21:16:53.621Z,0.40
2023-04-18T21:19:02.287Z,0.70
2023-04-18T21:21:12.184Z,0.70
2023-04-18T21:23:22.439Z,0.60
2023-04-18T21:25:31.744Z,0.50
2023-04-18T21:27:40.654Z,0.60
2023-04-18T21:29:49.385Z,0.60
2023-04-18T21:31:58.740Z,0.80
2023-04-18T21:34:07.763Z,0.60
2023-04-18T21:36:16.829Z,0.50
2023-04-18T21:38:28.230Z,0.70
2023-04-18T21:40:37.211Z,0.50
2023-04-18T21:42:48.128Z,0.50
2023-04-18T21:44:58.697Z,0.57
2023-04-18T21:47:07.361Z,0.50
2023-04-18T21:49:17.303Z,0.73
2023-04-18T21:51:27.520Z,0.53
2023-04-18T21:53:38.214Z,0.70
2023-04-18T21:55:47.115Z,0.50
2023-04-18T21:57:56.211Z,0.70
2023-04-18T22:00:08.416Z,0.60
2023-04-18T22:02:19.387Z,0.70
2023-04-18T22:04:28.603Z,0.40
2023-04-18T22:06:37.709Z,0.50
2023-04-18T22:08:48.643Z,0.60
2023-04-18T22:10:58.486Z,0.60
2023-04-18T22:13:07.393Z,0.73
2023-04-18T22:15:18.168Z,0.70
2023-04-18T22:17:27.810Z,0.70
2023-04-18T22:19:36.628Z,0.60
2023-04-18T22:21:45.516Z,0.60
2023-04-18T22:23:56.535Z,0.70
2023-04-18T22:26:05.207Z,0.70
2023-04-18T22:28:14.114Z,0.80
2023-04-18T22:30:23.214Z,0.70
2023-04-18T22:32:32.715Z,0.50
2023-04-18T22:34:41.825Z,0.73
2023-04-18T22:36:50.819Z,0.60
2023-04-18T22:39:01.884Z,0.40
2023-04-18T22:41:11.054Z,0.80
2023-04-18T22:43:24.044Z,0.70
2023-04-18T22:45:33.500Z,0.70
2023-04-18T22:47:42.307Z,0.50
2023-04-18T22:49:51.880Z,0.70
2023-04-18T22:52:01.653Z,0.60
2023-04-18T22:54:13.394Z,0.80
2023-04-18T22:56:22.297Z,0.60
2023-04-18T22:58:31.538Z,0.70
2023-04-18T23:00:40.295Z,0.70
2023-04-18T23:02:49.141Z,0.80
2023-04-18T23:05:00.524Z,0.80
2023-04-18T23:07:09.448Z,1.00
2023-04-18T23:09:19.805Z,0.80
2023-04-18T23:11:28.927Z,0.73
2023-04-18T23:13:38.031Z,0.73
2023-04-18T23:15:46.969Z,0.90
2023-04-18T23:17:56.654Z,0.90
2023-04-18T23:20:07.020Z,0.90
2023-04-18T23:22:16.176Z,0.80
2023-04-18T23:24:27.299Z,0.70
2023-04-18T23:26:36.165Z,0.80
2023-04-18T23:28:45.074Z,0.67
2023-04-18T23:30:53.996Z,0.60
2023-04-18T23:33:02.676Z,0.90
2023-04-18T23:35:13.052Z,1.10
2023-04-18T23:37:22.337Z,0.70
2023-04-18T23:39:32.729Z,0.80
2023-04-18T23:41:41.458Z,0.87
2023-04-18T23:43:50.451Z,0.80
2023-04-18T23:45:58.996Z,1.00
2023-04-18T23:48:08.357Z,0.77
2023-04-18T23:50:17.396Z,0.90
2023-04-18T23:52:26.365Z,0.90
2023-04-18T23:54:37.205Z,0.80
2023-04-18T23:56:45.789Z,0.83
2023-04-18T23:58:55.411Z,0.97
